sensor_id;sensor_type;location;lat;lon;timestamp;temperature;humidity
8008;DHT22;4049;49.468;11.200;2023-03-01T00:00:53;-2.20;99.90
8008;DHT22;4049;49.468;11.200;2023-03-01T00:03:21;-2.20;99.90
8008;DHT22;4049;49.468;11.200;2023-03-01T00:05:48;-2.20;99.90
8008;DHT22;4049;49.468;11.200;2023-03-01T00:08:15;-2.20;99.90
8008;DHT22;4049;49.468;11.200;2023-03-01T00:10:41;-2.20;99.90
8008;DHT22;4049;49.468;11.200;2023-03-01T00:13:08;-2.20;99.90
8008;DHT22;4049;49.468;11.200;2023-03-01T00:15:38;-2.20;99.90
8008;DHT22;4049;49.468;11.200;2023-03-01T00:18:05;-2.20;99.90
8008;DHT22;4049;49.468;11.200;2023-03-01T00:20:34;-2.20;99.90
8008;DHT22;4049;49.468;11.200;2023-03-01T00:23:01;-2.20;99.90
8008;DHT22;4049;49.468;11.200;2023-03-01T00:25:30;-2.20;99.90
8008;DHT22;4049;49.468;11.200;2023-03-01T00:27:57;-2.20;99.90
8008;DHT22;4049;49.468;11.200;2023-03-01T00:30:24;-2.20;99.90
8008;DHT22;4049;49.468;11.200;2023-03-01T00:32:51;-2.20;99.90
8008;DHT22;4049;49.468;11.200;2023-03-01T00:35:17;-2.30;99.90
8008;DHT22;4049;49.468;11.200;2023-03-01T00:37:46;-2.20;99.90
8008;DHT22;4049;49.468;11.200;2023-03-01T00:40:13;-2.20;99.90
8008;DHT22;4049;49.468;11.200;2023-03-01T00:42:41;-2.20;99.90
8008;DHT22;4049;49.468;11.200;2023-03-01T00:45:09;-2.20;99.90
8008;DHT22;4049;49.468;11.200;2023-03-01T00:47:36;-2.20;99.90
8008;DHT22;4049;49.468;11.200;2023-03-01T00:50:03;-2.20;99.90
8008;DHT22;4049;49.468;11.200;2023-03-01T00:52:30;-2.20;99.90
8008;DHT22;4049;49.468;11.200;2023-03-01T00:54:58;-2.20;99.90
8008;DHT22;4049;49.468;11.200;2023-03-01T00:57:25;-2.20;99.90
8008;DHT22;4049;49.468;11.200;2023-03-01T00:59:52;-2.20;99.90
8008;DHT22;4049;49.468;11.200;2023-03-01T01:02:19;-2.20;99.90
8008;DHT22;4049;49.468;11.200;2023-03-01T01:04:46;-2.20;99.90
8008;DHT22;4049;49.468;11.200;2023-03-01T01:07:13;-2.10;99.90
8008;DHT22;4049;49.468;11.200;2023-03-01T01:09:40;-2.10;99.90
8008;DHT22;4049;49.468;11.200;2023-03-01T01:12:09;-2.10;99.90
8008;DHT22;4049;49.468;11.200;2023-03-01T01:14:35;-2.10;99.90
8008;DHT22;4049;49.468;11.200;2023-03-01T01:17:03;-2.10;99.90
8008;DHT22;4049;49.468;11.200;2023-03-01T01:19:30;-2.10;99.90
8008;DHT22;4049;49.468;11.200;2023-03-01T01:21:57;-2.10;99.90
8008;DHT22;4049;49.468;11.200;2023-03-01T01:24:24;-2.10;99.90
8008;DHT22;4049;49.468;11.200;2023-03-01T01:26:51;-2.10;99.90
8008;DHT22;4049;49.468;11.200;2023-03-01T01:29:19;-2.10;99.90
8008;DHT22;4049;49.468;11.200;2023-03-01T01:31:46;-2.10;99.90
8008;DHT22;4049;49.468;11.200;2023-03-01T01:34:15;-2.10;99.90
8008;DHT22;4049;49.468;11.200;2023-03-01T01:36:42;-2.10;99.90
8008;DHT22;4049;49.468;11.200;2023-03-01T01:39:09;-2.10;99.90
8008;DHT22;4049;49.468;11.200;2023-03-01T01:41:39;-2.20;99.90
8008;DHT22;4049;49.468;11.200;2023-03-01T01:44:14;-2.10;99.90
8008;DHT22;4049;49.468;11.200;2023-03-01T01:46:44;-2.20;99.90
8008;DHT22;4049;49.468;11.200;2023-03-01T01:49:19;-2.20;99.90
8008;DHT22;4049;49.468;11.200;2023-03-01T01:51:53;-2.20;99.90
8008;DHT22;4049;49.468;11.200;2023-03-01T01:54:25;-2.20;99.90
8008;DHT22;4049;49.468;11.200;2023-03-01T01:56:58;-2.20;99.90
8008;DHT22;4049;49.468;11.200;2023-03-01T01:59:26;-2.20;99.90
8008;DHT22;4049;49.468;11.200;2023-03-01T02:01:58;-2.20;99.90
8008;DHT22;4049;49.468;11.200;2023-03-01T02:04:26;-2.20;99.90
8008;DHT22;4049;49.468;11.200;2023-03-01T02:06:58;-2.20;99.90
8008;DHT22;4049;49.468;11.200;2023-03-01T02:09:27;-2.20;99.90
8008;DHT22;4049;49.468;11.200;2023-03-01T02:11:54;-2.20;99.90
8008;DHT22;4049;49.468;11.200;2023-03-01T02:14:21;-2.20;99.90
8008;DHT22;4049;49.468;11.200;2023-03-01T02:16:48;-2.20;99.90
8008;DHT22;4049;49.468;11.200;2023-03-01T02:19:26;-2.20;99.90
8008;DHT22;4049;49.468;11.200;2023-03-01T02:22:01;-2.20;99.90
8008;DHT22;4049;49.468;11.200;2023-03-01T02:24:38;-2.20;99.90
8008;DHT22;4049;49.468;11.200;2023-03-01T02:27:13;-2.20;99.90
8008;DHT22;4049;49.468;11.200;2023-03-01T02:29:43;-2.10;99.90
8008;DHT22;4049;49.468;11.200;2023-03-01T02:32:11;-2.10;99.90
8008;DHT22;4049;49.468;11.200;2023-03-01T02:34:38;-2.10;99.90
8008;DHT22;4049;49.468;11.200;2023-03-01T02:37:09;-2.20;99.90
8008;DHT22;4049;49.468;11.200;2023-03-01T02:39:40;-2.10;99.90
8008;DHT22;4049;49.468;11.200;2023-03-01T02:42:11;-2.20;99.90
8008;DHT22;4049;49.468;11.200;2023-03-01T02:44:38;-2.20;99.90
8008;DHT22;4049;49.468;11.200;2023-03-01T02:47:07;-2.20;99.90
8008;DHT22;4049;49.468;11.200;2023-03-01T02:49:35;-2.20;99.90
8008;DHT22;4049;49.468;11.200;2023-03-01T02:52:21;-2.20;99.90
8008;DHT22;4049;49.468;11.200;2023-03-01T02:54:52;-2.30;99.90
8008;DHT22;4049;49.468;11.200;2023-03-01T02:57:19;-2.20;99.90
8008;DHT22;4049;49.468;11.200;2023-03-01T02:59:47;-2.20;99.90
8008;DHT22;4049;49.468;11.200;2023-03-01T03:02:24;-2.30;99.90
8008;DHT22;4049;49.468;11.200;2023-03-01T03:05:05;-2.30;99.90
8008;DHT22;4049;49.468;11.200;2023-03-01T03:07:34;-2.30;99.90
8008;DHT22;4049;49.468;11.200;2023-03-01T03:10:01;-2.30;99.90
8008;DHT22;4049;49.468;11.200;2023-03-01T03:12:29;-2.40;99.90
8008;DHT22;4049;49.468;11.200;2023-03-01T03:14:56;-2.40;99.90
8008;DHT22;4049;49.468;11.200;2023-03-01T03:17:24;-2.50;99.90
8008;DHT22;4049;49.468;11.200;2023-03-01T03:19:51;-2.50;99.90
8008;DHT22;4049;49.468;11.200;2023-03-01T03:22:17;-2.50;99.90
8008;DHT22;4049;49.468;11.200;2023-03-01T03:24:44;-2.50;99.90
8008;DHT22;4049;49.468;11.200;2023-03-01T03:27:11;-2.50;99.90
8008;DHT22;4049;49.468;11.200;2023-03-01T03:29:38;-2.60;99.90
8008;DHT22;4049;49.468;11.200;2023-03-01T03:32:04;-2.60;99.90
8008;DHT22;4049;49.468;11.200;2023-03-01T03:34:35;-2.60;99.90
8008;DHT22;4049;49.468;11.200;2023-03-01T03:37:02;-2.60;99.90
8008;DHT22;4049;49.468;11.200;2023-03-01T03:39:49;-2.60;99.90
8008;DHT22;4049;49.468;11.200;2023-03-01T03:42:20;-2.60;99.90
8008;DHT22;4049;49.468;11.200;2023-03-01T03:44:47;-2.60;99.90
8008;DHT22;4049;49.468;11.200;2023-03-01T03:47:14;-2.60;99.90
8008;DHT22;4049;49.468;11.200;2023-03-01T03:49:42;-2.60;99.90
8008;DHT22;4049;49.468;11.200;2023-03-01T03:52:09;-2.60;99.90
8008;DHT22;4049;49.468;11.200;2023-03-01T03:54:39;-2.60;99.90
8008;DHT22;4049;49.468;11.200;2023-03-01T03:57:06;-2.60;99.90
8008;DHT22;4049;49.468;11.200;2023-03-01T03:59:32;-2.60;99.90
8008;DHT22;4049;49.468;11.200;2023-03-01T04:01:59;-2.60;99.90
8008;DHT22;4049;49.468;11.200;2023-03-01T04:04:26;-2.60;99.90
8008;DHT22;4049;49.468;11.200;2023-03-01T04:06:54;-2.70;99.90
8008;DHT22;4049;49.468;11.200;2023-03-01T04:09:21;-2.80;99.90
8008;DHT22;4049;49.468;11.200;2023-03-01T04:11:48;-2.70;99.90
8008;DHT22;4049;49.468;11.200;2023-03-01T04:14:14;-2.70;99.90
8008;DHT22;4049;49.468;11.200;2023-03-01T04:16:41;-2.70;99.90
8008;DHT22;4049;49.468;11.200;2023-03-01T04:19:08;-2.70;99.90
8008;DHT22;4049;49.468;11.200;2023-03-01T04:21:35;-2.80;99.90
8008;DHT22;4049;49.468;11.200;2023-03-01T04:24:04;-2.80;99.90
8008;DHT22;4049;49.468;11.200;2023-03-01T04:26:32;-2.80;99.90
8008;DHT22;4049;49.468;11.200;2023-03-01T04:28:59;-2.80;99.90
8008;DHT22;4049;49.468;11.200;2023-03-01T04:31:25;-2.80;99.90
8008;DHT22;4049;49.468;11.200;2023-03-01T04:33:54;-2.90;99.90
8008;DHT22;4049;49.468;11.200;2023-03-01T04:36:22;-2.90;99.90
8008;DHT22;4049;49.468;11.200;2023-03-01T04:38:50;-2.90;99.90
8008;DHT22;4049;49.468;11.200;2023-03-01T04:41:20;-2.90;99.90
8008;DHT22;4049;49.468;11.200;2023-03-01T04:43:48;-3.00;99.90
8008;DHT22;4049;49.468;11.200;2023-03-01T04:46:16;-3.00;99.90
8008;DHT22;4049;49.468;11.200;2023-03-01T04:48:44;-3.00;99.90
8008;DHT22;4049;49.468;11.200;2023-03-01T04:51:12;-3.00;99.90
8008;DHT22;4049;49.468;11.200;2023-03-01T04:53:40;-3.10;99.90
8008;DHT22;4049;49.468;11.200;2023-03-01T04:56:07;-3.10;99.90
8008;DHT22;4049;49.468;11.200;2023-03-01T04:58:35;-3.10;99.90
8008;DHT22;4049;49.468;11.200;2023-03-01T05:01:09;-3.10;99.90
8008;DHT22;4049;49.468;11.200;2023-03-01T05:03:40;-3.10;99.90
8008;DHT22;4049;49.468;11.200;2023-03-01T05:06:07;-3.20;99.90
8008;DHT22;4049;49.468;11.200;2023-03-01T05:08:34;-3.20;99.90
8008;DHT22;4049;49.468;11.200;2023-03-01T05:11:03;-3.20;99.90
8008;DHT22;4049;49.468;11.200;2023-03-01T05:13:30;-3.30;99.90
8008;DHT22;4049;49.468;11.200;2023-03-01T05:16:00;-3.30;99.90
8008;DHT22;4049;49.468;11.200;2023-03-01T05:18:29;-3.30;99.90
8008;DHT22;4049;49.468;11.200;2023-03-01T05:21:02;-3.40;99.90
8008;DHT22;4049;49.468;11.200;2023-03-01T05:23:29;-3.40;99.90
8008;DHT22;4049;49.468;11.200;2023-03-01T05:25:59;-3.40;99.90
8008;DHT22;4049;49.468;11.200;2023-03-01T05:28:27;-3.40;99.90
8008;DHT22;4049;49.468;11.200;2023-03-01T05:30:55;-3.40;99.90
8008;DHT22;4049;49.468;11.200;2023-03-01T05:33:23;-3.50;99.90
8008;DHT22;4049;49.468;11.200;2023-03-01T05:35:51;-3.50;99.90
8008;DHT22;4049;49.468;11.200;2023-03-01T05:38:20;-3.50;99.90
8008;DHT22;4049;49.468;11.200;2023-03-01T05:40:48;-3.50;99.90
8008;DHT22;4049;49.468;11.200;2023-03-01T05:43:16;-3.50;99.90
8008;DHT22;4049;49.468;11.200;2023-03-01T05:45:43;-3.60;99.90
8008;DHT22;4049;49.468;11.200;2023-03-01T05:48:11;-3.60;99.90
8008;DHT22;4049;49.468;11.200;2023-03-01T05:50:41;-3.60;99.90
8008;DHT22;4049;49.468;11.200;2023-03-01T05:53:11;-3.60;99.90
8008;DHT22;4049;49.468;11.200;2023-03-01T05:55:38;-3.60;99.90
8008;DHT22;4049;49.468;11.200;2023-03-01T05:58:08;-3.60;99.90
8008;DHT22;4049;49.468;11.200;2023-03-01T06:00:36;-3.60;99.90
8008;DHT22;4049;49.468;11.200;2023-03-01T06:03:03;-3.70;99.90
8008;DHT22;4049;49.468;11.200;2023-03-01T06:05:30;-3.70;99.90
8008;DHT22;4049;49.468;11.200;2023-03-01T06:08:00;-3.70;99.90
8008;DHT22;4049;49.468;11.200;2023-03-01T06:10:27;-3.60;99.90
8008;DHT22;4049;49.468;11.200;2023-03-01T06:12:54;-3.60;99.90
8008;DHT22;4049;49.468;11.200;2023-03-01T06:15:22;-3.60;99.90
8008;DHT22;4049;49.468;11.200;2023-03-01T06:17:49;-3.60;99.90
8008;DHT22;4049;49.468;11.200;2023-03-01T06:20:18;-3.60;99.90
8008;DHT22;4049;49.468;11.200;2023-03-01T06:22:45;-3.60;99.90
8008;DHT22;4049;49.468;11.200;2023-03-01T06:25:17;-3.60;99.90
8008;DHT22;4049;49.468;11.200;2023-03-01T06:27:44;-3.50;99.90
8008;DHT22;4049;49.468;11.200;2023-03-01T06:30:13;-3.50;99.90
8008;DHT22;4049;49.468;11.200;2023-03-01T06:32:40;-3.50;99.90
8008;DHT22;4049;49.468;11.200;2023-03-01T06:35:08;-3.40;99.90
8008;DHT22;4049;49.468;11.200;2023-03-01T06:37:36;-3.40;99.90
8008;DHT22;4049;49.468;11.200;2023-03-01T06:40:03;-3.30;99.90
8008;DHT22;4049;49.468;11.200;2023-03-01T06:42:35;-3.30;99.90
8008;DHT22;4049;49.468;11.200;2023-03-01T06:45:02;-3.30;99.90
8008;DHT22;4049;49.468;11.200;2023-03-01T06:47:29;-3.20;99.90
8008;DHT22;4049;49.468;11.200;2023-03-01T06:49:55;-3.10;99.90
8008;DHT22;4049;49.468;11.200;2023-03-01T06:52:22;-3.10;99.90
8008;DHT22;4049;49.468;11.200;2023-03-01T06:54:49;-3.00;99.90
8008;DHT22;4049;49.468;11.200;2023-03-01T06:57:16;-3.00;99.90
8008;DHT22;4049;49.468;11.200;2023-03-01T06:59:44;-2.90;99.90
8008;DHT22;4049;49.468;11.200;2023-03-01T07:02:13;-2.90;99.90
8008;DHT22;4049;49.468;11.200;2023-03-01T07:04:41;-2.80;99.90
8008;DHT22;4049;49.468;11.200;2023-03-01T07:07:08;-2.80;99.90
8008;DHT22;4049;49.468;11.200;2023-03-01T07:09:35;-2.70;99.90
8008;DHT22;4049;49.468;11.200;2023-03-01T07:12:02;-2.70;99.90
8008;DHT22;4049;49.468;11.200;2023-03-01T07:14:29;-2.60;99.90
8008;DHT22;4049;49.468;11.200;2023-03-01T07:16:57;-2.60;99.90
8008;DHT22;4049;49.468;11.200;2023-03-01T07:19:24;-2.50;99.90
8008;DHT22;4049;49.468;11.200;2023-03-01T07:21:51;-2.50;99.90
8008;DHT22;4049;49.468;11.200;2023-03-01T07:24:18;-2.40;99.90
8008;DHT22;4049;49.468;11.200;2023-03-01T07:26:48;-2.30;99.90
8008;DHT22;4049;49.468;11.200;2023-03-01T07:29:15;-2.30;99.90
8008;DHT22;4049;49.468;11.200;2023-03-01T07:31:42;-2.20;99.90
8008;DHT22;4049;49.468;11.200;2023-03-01T07:34:10;-2.20;99.90
8008;DHT22;4049;49.468;11.200;2023-03-01T07:36:37;-2.10;99.90
8008;DHT22;4049;49.468;11.200;2023-03-01T07:39:05;-2.10;99.90
8008;DHT22;4049;49.468;11.200;2023-03-01T07:41:32;-2.00;99.90
8008;DHT22;4049;49.468;11.200;2023-03-01T07:43:58;-2.00;99.90
8008;DHT22;4049;49.468;11.200;2023-03-01T07:46:25;-1.90;99.90
8008;DHT22;4049;49.468;11.200;2023-03-01T07:48:52;-1.90;99.90
8008;DHT22;4049;49.468;11.200;2023-03-01T07:51:20;-1.80;99.90
8008;DHT22;4049;49.468;11.200;2023-03-01T07:53:48;-1.70;99.90
8008;DHT22;4049;49.468;11.200;2023-03-01T07:56:16;-1.70;99.90
8008;DHT22;4049;49.468;11.200;2023-03-01T07:58:44;-1.60;99.90
8008;DHT22;4049;49.468;11.200;2023-03-01T08:01:13;-1.50;99.90
8008;DHT22;4049;49.468;11.200;2023-03-01T08:03:40;-1.50;99.90
8008;DHT22;4049;49.468;11.200;2023-03-01T08:06:09;-1.30;99.90
8008;DHT22;4049;49.468;11.200;2023-03-01T08:08:38;-1.30;99.90
8008;DHT22;4049;49.468;11.200;2023-03-01T08:11:06;-1.20;99.90
8008;DHT22;4049;49.468;11.200;2023-03-01T08:13:34;-1.20;99.90
8008;DHT22;4049;49.468;11.200;2023-03-01T08:16:01;-1.10;99.90
8008;DHT22;4049;49.468;11.200;2023-03-01T08:18:28;-1.00;99.90
8008;DHT22;4049;49.468;11.200;2023-03-01T08:20:55;-0.90;99.90
8008;DHT22;4049;49.468;11.200;2023-03-01T08:23:22;-0.80;99.90
8008;DHT22;4049;49.468;11.200;2023-03-01T08:25:50;-0.70;99.90
8008;DHT22;4049;49.468;11.200;2023-03-01T08:28:18;-0.70;99.90
8008;DHT22;4049;49.468;11.200;2023-03-01T08:30:45;-0.60;99.90
8008;DHT22;4049;49.468;11.200;2023-03-01T08:33:11;-0.50;99.90
8008;DHT22;4049;49.468;11.200;2023-03-01T08:35:38;-0.40;99.90
8008;DHT22;4049;49.468;11.200;2023-03-01T08:38:05;-0.30;99.90
8008;DHT22;4049;49.468;11.200;2023-03-01T08:40:32;-0.20;99.90
8008;DHT22;4049;49.468;11.200;2023-03-01T08:43:00;-0.10;99.90
8008;DHT22;4049;49.468;11.200;2023-03-01T08:45:28;-0.10;99.90
8008;DHT22;4049;49.468;11.200;2023-03-01T08:47:55;0.00;99.90
8008;DHT22;4049;49.468;11.200;2023-03-01T08:50:21;0.10;99.90
8008;DHT22;4049;49.468;11.200;2023-03-01T08:52:50;0.20;99.90
8008;DHT22;4049;49.468;11.200;2023-03-01T08:55:16;0.30;99.90
8008;DHT22;4049;49.468;11.200;2023-03-01T08:57:43;0.30;99.90
8008;DHT22;4049;49.468;11.200;2023-03-01T09:00:12;0.40;99.90
8008;DHT22;4049;49.468;11.200;2023-03-01T09:02:40;0.40;99.90
8008;DHT22;4049;49.468;11.200;2023-03-01T09:05:08;0.50;99.90
8008;DHT22;4049;49.468;11.200;2023-03-01T09:07:35;0.60;99.90
8008;DHT22;4049;49.468;11.200;2023-03-01T09:10:02;0.70;99.90
8008;DHT22;4049;49.468;11.200;2023-03-01T09:12:29;0.70;99.90
8008;DHT22;4049;49.468;11.200;2023-03-01T09:14:55;0.80;99.90
8008;DHT22;4049;49.468;11.200;2023-03-01T09:17:24;0.80;99.90
8008;DHT22;4049;49.468;11.200;2023-03-01T09:19:50;0.90;99.90
8008;DHT22;4049;49.468;11.200;2023-03-01T09:22:17;1.00;99.90
8008;DHT22;4049;49.468;11.200;2023-03-01T09:24:44;1.00;99.90
8008;DHT22;4049;49.468;11.200;2023-03-01T09:27:11;1.10;99.90
8008;DHT22;4049;49.468;11.200;2023-03-01T09:29:40;1.20;99.90
8008;DHT22;4049;49.468;11.200;2023-03-01T09:32:07;1.20;99.90
8008;DHT22;4049;49.468;11.200;2023-03-01T09:34:35;1.30;99.90
8008;DHT22;4049;49.468;11.200;2023-03-01T09:37:23;1.30;99.90
8008;DHT22;4049;49.468;11.200;2023-03-01T09:39:50;1.40;99.90
8008;DHT22;4049;49.468;11.200;2023-03-01T09:42:17;1.50;99.90
8008;DHT22;4049;49.468;11.200;2023-03-01T09:44:47;1.60;99.90
8008;DHT22;4049;49.468;11.200;2023-03-01T09:47:19;1.70;99.90
8008;DHT22;4049;49.468;11.200;2023-03-01T09:49:56;1.70;99.90
8008;DHT22;4049;49.468;11.200;2023-03-01T09:52:33;1.80;99.90
8008;DHT22;4049;49.468;11.200;2023-03-01T09:55:00;1.80;99.90
8008;DHT22;4049;49.468;11.200;2023-03-01T09:57:33;1.90;99.90
8008;DHT22;4049;49.468;11.200;2023-03-01T10:00:19;2.00;99.90
8008;DHT22;4049;49.468;11.200;2023-03-01T10:02:51;2.10;99.90
8008;DHT22;4049;49.468;11.200;2023-03-01T10:05:46;2.20;99.90
8008;DHT22;4049;49.468;11.200;2023-03-01T10:08:37;2.30;99.90
8008;DHT22;4049;49.468;11.200;2023-03-01T10:11:19;2.40;99.90
8008;DHT22;4049;49.468;11.200;2023-03-01T10:13:50;2.50;99.90
8008;DHT22;4049;49.468;11.200;2023-03-01T10:16:22;2.60;99.90
8008;DHT22;4049;49.468;11.200;2023-03-01T10:18:54;2.70;99.90
8008;DHT22;4049;49.468;11.200;2023-03-01T10:21:23;2.80;99.90
8008;DHT22;4049;49.468;11.200;2023-03-01T10:23:51;2.90;99.90
8008;DHT22;4049;49.468;11.200;2023-03-01T10:26:38;3.10;99.90
8008;DHT22;4049;49.468;11.200;2023-03-01T10:29:08;3.20;99.90
8008;DHT22;4049;49.468;11.200;2023-03-01T10:31:40;3.40;99.90
8008;DHT22;4049;49.468;11.200;2023-03-01T10:34:11;3.50;99.90
8008;DHT22;4049;49.468;11.200;2023-03-01T10:36:42;3.50;99.90
8008;DHT22;4049;49.468;11.200;2023-03-01T10:39:14;3.70;99.90
8008;DHT22;4049;49.468;11.200;2023-03-01T10:41:59;3.80;99.90
8008;DHT22;4049;49.468;11.200;2023-03-01T10:44:41;3.90;99.90
8008;DHT22;4049;49.468;11.200;2023-03-01T10:47:18;4.00;99.90
8008;DHT22;4049;49.468;11.200;2023-03-01T10:49:55;4.10;99.90
8008;DHT22;4049;49.468;11.200;2023-03-01T10:52:25;4.30;99.90
8008;DHT22;4049;49.468;11.200;2023-03-01T10:54:54;4.50;99.90
8008;DHT22;4049;49.468;11.200;2023-03-01T10:57:28;4.60;99.90
8008;DHT22;4049;49.468;11.200;2023-03-01T11:00:10;4.80;99.90
8008;DHT22;4049;49.468;11.200;2023-03-01T11:02:42;4.90;99.90
8008;DHT22;4049;49.468;11.200;2023-03-01T11:05:18;5.10;99.90
8008;DHT22;4049;49.468;11.200;2023-03-01T11:07:51;5.30;99.90
8008;DHT22;4049;49.468;11.200;2023-03-01T11:10:20;5.50;99.90
8008;DHT22;4049;49.468;11.200;2023-03-01T11:12:48;5.80;99.90
8008;DHT22;4049;49.468;11.200;2023-03-01T11:15:27;6.00;99.90
8008;DHT22;4049;49.468;11.200;2023-03-01T11:17:54;6.20;97.30
8008;DHT22;4049;49.468;11.200;2023-03-01T11:20:29;6.50;97.50
8008;DHT22;4049;49.468;11.200;2023-03-01T11:23:01;6.70;97.00
8008;DHT22;4049;49.468;11.200;2023-03-01T11:25:33;7.00;94.10
8008;DHT22;4049;49.468;11.200;2023-03-01T11:28:03;7.30;94.70
8008;DHT22;4049;49.468;11.200;2023-03-01T11:30:33;7.40;90.40
8008;DHT22;4049;49.468;11.200;2023-03-01T11:33:11;7.70;87.10
8008;DHT22;4049;49.468;11.200;2023-03-01T11:35:44;7.80;85.30
8008;DHT22;4049;49.468;11.200;2023-03-01T11:38:22;8.00;84.20
8008;DHT22;4049;49.468;11.200;2023-03-01T11:40:52;8.30;82.60
8008;DHT22;4049;49.468;11.200;2023-03-01T11:43:28;8.60;82.30
8008;DHT22;4049;49.468;11.200;2023-03-01T11:49:16;9.10;72.40
8008;DHT22;4049;49.468;11.200;2023-03-01T11:51:55;9.20;66.80
8008;DHT22;4049;49.468;11.200;2023-03-01T11:54:41;9.40;66.00
8008;DHT22;4049;49.468;11.200;2023-03-01T11:57:18;9.40;63.30
8008;DHT22;4049;49.468;11.200;2023-03-01T12:00:07;9.70;64.70
8008;DHT22;4049;49.468;11.200;2023-03-01T12:03:00;9.80;62.20
8008;DHT22;4049;49.468;11.200;2023-03-01T12:05:54;10.00;59.70
8008;DHT22;4049;49.468;11.200;2023-03-01T12:08:33;10.20;58.60
8008;DHT22;4049;49.468;11.200;2023-03-01T12:11:16;10.30;56.10
8008;DHT22;4049;49.468;11.200;2023-03-01T12:14:21;10.40;56.80
8008;DHT22;4049;49.468;11.200;2023-03-01T12:17:04;10.60;55.90
8008;DHT22;4049;49.468;11.200;2023-03-01T12:19:44;10.60;54.30
8008;DHT22;4049;49.468;11.200;2023-03-01T12:22:24;10.70;54.00
8008;DHT22;4049;49.468;11.200;2023-03-01T12:25:19;10.80;53.50
8008;DHT22;4049;49.468;11.200;2023-03-01T12:31:05;10.80;52.90
8008;DHT22;4049;49.468;11.200;2023-03-01T12:33:41;10.80;53.00
8008;DHT22;4049;49.468;11.200;2023-03-01T12:36:20;10.80;52.70
8008;DHT22;4049;49.468;11.200;2023-03-01T12:38:52;10.70;51.10
8008;DHT22;4049;49.468;11.200;2023-03-01T12:41:39;10.70;53.20
8008;DHT22;4049;49.468;11.200;2023-03-01T12:44:23;10.60;52.10
8008;DHT22;4049;49.468;11.200;2023-03-01T12:47:05;10.50;52.40
8008;DHT22;4049;49.468;11.200;2023-03-01T12:49:37;10.50;53.00
8008;DHT22;4049;49.468;11.200;2023-03-01T12:52:11;10.40;53.90
8008;DHT22;4049;49.468;11.200;2023-03-01T12:54:41;10.40;54.40
8008;DHT22;4049;49.468;11.200;2023-03-01T12:57:14;10.30;53.40
8008;DHT22;4049;49.468;11.200;2023-03-01T13:00:00;10.30;54.60
8008;DHT22;4049;49.468;11.200;2023-03-01T13:02:37;10.30;54.50
8008;DHT22;4049;49.468;11.200;2023-03-01T13:05:19;10.30;55.60
8008;DHT22;4049;49.468;11.200;2023-03-01T13:07:55;10.30;54.70
8008;DHT22;4049;49.468;11.200;2023-03-01T13:10:31;10.30;56.10
8008;DHT22;4049;49.468;11.200;2023-03-01T13:13:11;10.30;55.70
8008;DHT22;4049;49.468;11.200;2023-03-01T13:15:40;10.20;53.80
8008;DHT22;4049;49.468;11.200;2023-03-01T13:18:30;10.10;54.70
8008;DHT22;4049;49.468;11.200;2023-03-01T13:20:59;10.10;55.00
8008;DHT22;4049;49.468;11.200;2023-03-01T13:23:29;10.00;55.50
8008;DHT22;4049;49.468;11.200;2023-03-01T13:26:16;10.00;55.20
8008;DHT22;4049;49.468;11.200;2023-03-01T13:28:54;10.00;55.80
8008;DHT22;4049;49.468;11.200;2023-03-01T13:32:00;10.00;55.10
8008;DHT22;4049;49.468;11.200;2023-03-01T13:34:53;10.00;56.00
8008;DHT22;4049;49.468;11.200;2023-03-01T13:37:23;10.00;55.90
8008;DHT22;4049;49.468;11.200;2023-03-01T13:39:52;10.00;56.30
8008;DHT22;4049;49.468;11.200;2023-03-01T13:42:39;10.10;56.10
8008;DHT22;4049;49.468;11.200;2023-03-01T13:45:35;10.10;56.40
8008;DHT22;4049;49.468;11.200;2023-03-01T13:48:09;10.20;57.70
8008;DHT22;4049;49.468;11.200;2023-03-01T13:50:45;10.30;56.40
8008;DHT22;4049;49.468;11.200;2023-03-01T13:53:17;10.40;57.20
8008;DHT22;4049;49.468;11.200;2023-03-01T13:55:47;10.60;56.50
8008;DHT22;4049;49.468;11.200;2023-03-01T13:58:19;10.70;55.70
8008;DHT22;4049;49.468;11.200;2023-03-01T14:00:47;10.80;55.10
8008;DHT22;4049;49.468;11.200;2023-03-01T14:03:17;11.00;55.70
8008;DHT22;4049;49.468;11.200;2023-03-01T14:05:58;11.10;55.00
8008;DHT22;4049;49.468;11.200;2023-03-01T14:08:27;11.30;54.50
8008;DHT22;4049;49.468;11.200;2023-03-01T14:11:02;11.40;54.40
8008;DHT22;4049;49.468;11.200;2023-03-01T14:13:53;11.60;53.70
8008;DHT22;4049;49.468;11.200;2023-03-01T14:16:30;11.70;53.40
8008;DHT22;4049;49.468;11.200;2023-03-01T14:19:09;11.80;53.10
8008;DHT22;4049;49.468;11.200;2023-03-01T14:21:37;11.90;52.00
8008;DHT22;4049;49.468;11.200;2023-03-01T14:24:04;12.10;51.90
8008;DHT22;4049;49.468;11.200;2023-03-01T14:26:32;12.30;52.20
8008;DHT22;4049;49.468;11.200;2023-03-01T14:29:02;12.40;51.40
8008;DHT22;4049;49.468;11.200;2023-03-01T14:31:35;12.50;51.40
8008;DHT22;4049;49.468;11.200;2023-03-01T14:34:04;12.60;50.70
8008;DHT22;4049;49.468;11.200;2023-03-01T14:36:33;12.70;50.20
8008;DHT22;4049;49.468;11.200;2023-03-01T14:39:01;12.70;50.40
8008;DHT22;4049;49.468;11.200;2023-03-01T14:41:33;12.70;49.60
8008;DHT22;4049;49.468;11.200;2023-03-01T14:44:03;12.70;49.60
8008;DHT22;4049;49.468;11.200;2023-03-01T14:46:34;12.80;50.00
8008;DHT22;4049;49.468;11.200;2023-03-01T14:49:05;12.70;49.40
8008;DHT22;4049;49.468;11.200;2023-03-01T14:51:36;12.60;48.80
8008;DHT22;4049;49.468;11.200;2023-03-01T14:54:05;12.40;48.30
8008;DHT22;4049;49.468;11.200;2023-03-01T14:56:45;12.30;48.60
8008;DHT22;4049;49.468;11.200;2023-03-01T14:59:12;12.30;49.50
8008;DHT22;4049;49.468;11.200;2023-03-01T15:01:40;12.20;49.60
8008;DHT22;4049;49.468;11.200;2023-03-01T15:04:12;12.10;49.30
8008;DHT22;4049;49.468;11.200;2023-03-01T15:06:40;12.00;49.70
8008;DHT22;4049;49.468;11.200;2023-03-01T15:09:11;11.80;49.50
8008;DHT22;4049;49.468;11.200;2023-03-01T15:11:38;11.60;49.90
8008;DHT22;4049;49.468;11.200;2023-03-01T15:14:38;11.50;50.30
8008;DHT22;4049;49.468;11.200;2023-03-01T15:17:20;11.30;50.60
8008;DHT22;4049;49.468;11.200;2023-03-01T15:19:49;11.20;51.20
8008;DHT22;4049;49.468;11.200;2023-03-01T15:22:16;11.20;52.20
8008;DHT22;4049;49.468;11.200;2023-03-01T15:24:47;11.10;52.40
8008;DHT22;4049;49.468;11.200;2023-03-01T15:27:16;10.90;52.40
8008;DHT22;4049;49.468;11.200;2023-03-01T15:29:48;10.80;52.90
8008;DHT22;4049;49.468;11.200;2023-03-01T15:32:28;10.60;53.00
8008;DHT22;4049;49.468;11.200;2023-03-01T15:34:57;10.50;52.80
8008;DHT22;4049;49.468;11.200;2023-03-01T15:37:49;10.40;54.10
8008;DHT22;4049;49.468;11.200;2023-03-01T15:40:20;10.30;54.00
8008;DHT22;4049;49.468;11.200;2023-03-01T15:42:49;10.30;55.30
8008;DHT22;4049;49.468;11.200;2023-03-01T15:45:24;10.20;55.00
8008;DHT22;4049;49.468;11.200;2023-03-01T15:47:54;10.10;55.20
8008;DHT22;4049;49.468;11.200;2023-03-01T15:50:26;10.10;54.90
8008;DHT22;4049;49.468;11.200;2023-03-01T15:52:54;9.90;56.30
8008;DHT22;4049;49.468;11.200;2023-03-01T15:55:23;9.80;55.80
8008;DHT22;4049;49.468;11.200;2023-03-01T15:57:58;9.70;57.00
8008;DHT22;4049;49.468;11.200;2023-03-01T16:00:27;9.60;57.50
8008;DHT22;4049;49.468;11.200;2023-03-01T16:02:54;9.50;57.30
8008;DHT22;4049;49.468;11.200;2023-03-01T16:05:24;9.40;58.20
8008;DHT22;4049;49.468;11.200;2023-03-01T16:07:52;9.30;58.70
8008;DHT22;4049;49.468;11.200;2023-03-01T16:10:20;9.20;58.70
8008;DHT22;4049;49.468;11.200;2023-03-01T16:12:47;9.10;59.30
8008;DHT22;4049;49.468;11.200;2023-03-01T16:15:18;9.00;59.80
8008;DHT22;4049;49.468;11.200;2023-03-01T16:17:45;8.80;60.40
8008;DHT22;4049;49.468;11.200;2023-03-01T16:20:12;8.70;60.80